Agency Village, South Dakota
Current Conditions -  °F | °C
As of 4:56 PM on Monday 24 Nov 2014 (Local Time) from KETH Reporting Station
Scattered Clouds Scattered Clouds  
Wind Chill: -17°   Ceiling: Unl
Heat Index: -8°   Visibility: 10mi
Dew Point: -11°   Wind: 18mph
Humidity: 79%   Direction: 300°WNW
Pressure: 29.9"   Gusts: 25mph
Location:  45.7041°N, 96.9842°W
Report Text: KETH 242256Z AUTO 30016G22KT 10SM SCT023 M08/M11 A2990 RMK AO2
Loading
Personal Weather Stations






























Interactive Weather Map New forecast layout! Learn more

10-Day Weather Forecast

Advertisements
Track Severe Weather on mobile